This is the latest recevied weather packets stored in our database for station/object K9CMP-13. If no packets are shown the sender has not sent any weather packets the latest 10 day(s).
| Time | Temp. | Humidity | Pressure | Rain* | Wind** | Luminosity | Snow |
|---|---|---|---|---|---|---|---|
| 1787438342 | 23.89° C | 52% | 1015.6 hPa | 0 mm | - | - | - |
| 1787437742 | 23.89° C | 50% | 1015.6 hPa | 0 mm | - | - | - |
| 1787436842 | 24.44° C | 51% | 1015.2 hPa | 0 mm | - | - | - |
| 1787434442 | 24.44° C | 45% | 1015.6 hPa | 0 mm | - | - | - |
| 1787433542 | 26.11° C | 48% | 1015.6 hPa | 0 mm | - | - | - |
| 1787430242 | 25° C | 50% | 1015.6 hPa | 0 mm | - | - | - |
| 1787429341 | 25° C | 50% | 1015.9 hPa | 0 mm | - | - | - |
| 1787428441 | 25° C | 52% | 1015.9 hPa | 0 mm | - | - | - |
| 1787427541 | 25° C | 50% | 1015.9 hPa | 0 mm | - | - | - |
| 1787426642 | 23.33° C | 56% | 1016.3 hPa | 0 mm | - | - | - |
| 1787425742 | 25° C | 52% | 1016.3 hPa | 0 mm | - | - | - |
| 1787422442 | 24.44° C | 56% | 1016.3 hPa | 0 mm | - | - | - |
| 1787421842 | 24.44° C | 56% | 1016.3 hPa | 0 mm | - | - | - |
| 1787418542 | 23.89° C | 62% | 1016.3 hPa | 0 mm | - | - | - |
| 1787417642 | 23.89° C | 59% | 1015.9 hPa | 0 mm | - | - | - |
| 1787415841 | 23.33° C | 64% | 1015.9 hPa | 0 mm | - | - | - |
| 1787414941 | 23.33° C | 65% | 1015.9 hPa | 0 mm | - | - | - |
| 1787414041 | 22.22° C | 67% | 1015.9 hPa | 0 mm | - | - | - |
| 1787413141 | 21.67° C | 69% | 1015.9 hPa | 0 mm | - | - | - |
| 1787412241 | 21.67° C | 71% | 1015.9 hPa | 0 mm | - | - | - |
| 1787411342 | 21.67° C | 73% | 1015.6 hPa | 0 mm | - | - | - |
| 1787409541 | 20° C | 78% | 1015.6 hPa | 0 mm | - | - | - |
| 1787408642 | 20° C | 80% | 1015.6 hPa | 0 mm | - | - | - |
| 1787405942 | 18.33° C | 88% | 1015.6 hPa | 0 mm | - | - | - |
| 1787405042 | 17.78° C | 88% | 1015.6 hPa | 0 mm | - | - | - |
* Rain latest hour (hover to see other rain measurements)
** Current wind speed in m/s (hover to see current wind gust speed)